createdAt,value
2017-10-31T00:00:23.067Z,101842
2017-10-31T00:02:51.209Z,101850
2017-10-31T00:05:19.336Z,101845
2017-10-31T00:07:47.475Z,101842
2017-10-31T00:10:15.620Z,101829
2017-10-31T00:12:43.760Z,101831
2017-10-31T00:15:11.865Z,101840
2017-10-31T00:17:40.023Z,101830
2017-10-31T00:20:08.480Z,101837
2017-10-31T00:22:37.365Z,101833
2017-10-31T00:25:06.241Z,101826
2017-10-31T00:27:34.392Z,101828
2017-10-31T00:30:02.566Z,101826
2017-10-31T00:32:30.707Z,101828
2017-10-31T00:34:59.227Z,101822
2017-10-31T00:37:27.543Z,101812
2017-10-31T00:39:55.675Z,101817
2017-10-31T00:42:23.818Z,101819
2017-10-31T00:44:51.952Z,101819
2017-10-31T00:47:20.095Z,101826
2017-10-31T00:49:48.245Z,101823
2017-10-31T00:52:16.356Z,101823
2017-10-31T00:54:44.488Z,101821
2017-10-31T00:57:12.610Z,101831
2017-10-31T00:59:41.103Z,101840
2017-10-31T01:02:09.991Z,101832
2017-10-31T01:04:38.127Z,101832
2017-10-31T01:07:06.267Z,101828
2017-10-31T01:09:34.418Z,101840
2017-10-31T01:12:03.299Z,101838
2017-10-31T01:14:31.430Z,101832
2017-10-31T01:16:59.547Z,101881
2017-10-31T01:19:27.703Z,101837
2017-10-31T01:21:56.203Z,101843
2017-10-31T01:24:24.332Z,101837
2017-10-31T01:26:52.473Z,101817
2017-10-31T01:29:20.599Z,101812
2017-10-31T01:31:48.844Z,101809
2017-10-31T01:34:16.997Z,101811
2017-10-31T01:36:45.137Z,101823
2017-10-31T01:39:14.055Z,101816
2017-10-31T01:41:42.673Z,101825
2017-10-31T01:44:10.831Z,101822
2017-10-31T01:46:38.964Z,101824
2017-10-31T01:49:07.119Z,101800
2017-10-31T01:51:35.288Z,101819
2017-10-31T01:54:03.508Z,101817
2017-10-31T01:56:31.652Z,101825
2017-10-31T01:58:59.827Z,101811
2017-10-31T02:01:28.027Z,101800
2017-10-31T02:03:56.919Z,101802
2017-10-31T02:06:26.083Z,101807
2017-10-31T02:08:54.229Z,101796
2017-10-31T02:11:22.384Z,101804
2017-10-31T02:13:50.512Z,101799
2017-10-31T02:16:18.684Z,101803
2017-10-31T02:18:46.849Z,101796
2017-10-31T02:21:15.067Z,101782
2017-10-31T02:23:44.125Z,101784
2017-10-31T02:26:12.707Z,101789
2017-10-31T02:28:41.247Z,101786
2017-10-31T02:31:09.491Z,101791
2017-10-31T02:33:37.715Z,101782
2017-10-31T02:36:05.915Z,101788
2017-10-31T02:38:47.748Z,101794
2017-10-31T02:41:16.737Z,101779
2017-10-31T02:43:45.016Z,101784
2017-10-31T02:46:13.868Z,101786
2017-10-31T02:48:42.100Z,101785
2017-10-31T02:51:10.316Z,101773
2017-10-31T02:53:38.548Z,101787
2017-10-31T02:56:06.792Z,101794
2017-10-31T02:58:35.003Z,101803
2017-10-31T03:01:03.232Z,101814
2017-10-31T03:03:31.440Z,101818
2017-10-31T03:05:59.627Z,101806
2017-10-31T03:08:27.835Z,101793
2017-10-31T03:10:56.047Z,101784
2017-10-31T03:13:24.715Z,101781
2017-10-31T03:15:53.015Z,101794
2017-10-31T03:18:21.218Z,101794
2017-10-31T03:20:49.415Z,101795
2017-10-31T03:23:18.552Z,101790
2017-10-31T03:25:46.791Z,101790
2017-10-31T03:28:15.004Z,101792
2017-10-31T03:30:43.236Z,101786
2017-10-31T03:33:11.412Z,101786
2017-10-31T03:35:40.035Z,101787
2017-10-31T03:38:08.239Z,101796
2017-10-31T03:40:36.447Z,101791
2017-10-31T03:43:04.715Z,101798
2017-10-31T03:45:32.915Z,101790
2017-10-31T03:48:01.166Z,101801
2017-10-31T03:50:29.420Z,101789
2017-10-31T03:52:57.653Z,101788
2017-10-31T03:55:25.900Z,101791
2017-10-31T03:57:54.143Z,101791
2017-10-31T04:00:22.387Z,101797
2017-10-31T04:02:50.620Z,101812
2017-10-31T04:05:18.824Z,101811
2017-10-31T04:07:47.067Z,101811
2017-10-31T04:10:15.300Z,101806
2017-10-31T04:12:43.541Z,101802
2017-10-31T04:15:11.699Z,101804
2017-10-31T04:17:39.902Z,101804
2017-10-31T04:20:08.613Z,101795
2017-10-31T04:22:36.747Z,101793
2017-10-31T04:25:04.903Z,101785
2017-10-31T04:27:33.064Z,101791
2017-10-31T04:30:01.205Z,101784
2017-10-31T04:32:30.100Z,101789
2017-10-31T04:34:59.003Z,101790
2017-10-31T04:37:27.879Z,101793
2017-10-31T04:39:57.111Z,101799
2017-10-31T04:42:25.234Z,101795
2017-10-31T04:44:53.408Z,101801
2017-10-31T04:47:22.044Z,101801
2017-10-31T04:49:50.219Z,101799
2017-10-31T04:52:18.372Z,101792
2017-10-31T04:54:47.417Z,101788
2017-10-31T04:57:15.619Z,101785
2017-10-31T04:59:43.781Z,101790
2017-10-31T05:02:11.936Z,101781
2017-10-31T05:04:40.058Z,101774
2017-10-31T05:07:08.274Z,101779
2017-10-31T05:09:36.387Z,101778
2017-10-31T05:12:06.419Z,101776
2017-10-31T05:14:35.268Z,101786
2017-10-31T05:17:03.412Z,101789
2017-10-31T05:19:31.544Z,101782
2017-10-31T05:21:59.660Z,101771
2017-10-31T05:24:27.799Z,101769
2017-10-31T05:26:56.677Z,101777
2017-10-31T05:29:24.788Z,101776
2017-10-31T05:31:52.885Z,101774
2017-10-31T05:34:20.972Z,101769
2017-10-31T05:36:49.375Z,101771
2017-10-31T05:39:17.513Z,101777
2017-10-31T05:41:45.661Z,101768
2017-10-31T05:44:13.787Z,101770
2017-10-31T05:46:41.944Z,101773
2017-10-31T05:49:10.063Z,101777
2017-10-31T05:51:38.206Z,101783
2017-10-31T05:54:06.359Z,101779
2017-10-31T05:56:34.475Z,101785
2017-10-31T05:59:02.635Z,101789
2017-10-31T06:01:31.548Z,101784
2017-10-31T06:04:00.412Z,101778
2017-10-31T06:06:28.603Z,101786
2017-10-31T06:08:56.722Z,101787
2017-10-31T06:11:24.863Z,101790
2017-10-31T06:13:54.163Z,101798
2017-10-31T06:16:23.056Z,101785
2017-10-31T06:18:51.899Z,101793
2017-10-31T06:21:20.903Z,101794
2017-10-31T06:25:57.148Z,101792
2017-10-31T06:30:33.592Z,101811
2017-10-31T06:33:02.453Z,101809
2017-10-31T06:35:30.587Z,101812
2017-10-31T06:37:58.735Z,101812
2017-10-31T06:40:26.867Z,101816
2017-10-31T06:42:55.076Z,101807
2017-10-31T06:45:23.220Z,101814
2017-10-31T06:47:51.358Z,101792
2017-10-31T06:50:19.491Z,101782
2017-10-31T06:52:48.720Z,101783
2017-10-31T06:55:16.868Z,101779
2017-10-31T06:57:45.388Z,101777
2017-10-31T07:00:13.527Z,101793
2017-10-31T07:02:42.384Z,101798
2017-10-31T07:05:10.508Z,101797
2017-10-31T07:07:39.211Z,101795
2017-10-31T07:10:07.387Z,101800
2017-10-31T07:12:35.521Z,101806
2017-10-31T07:15:03.723Z,101805
2017-10-31T07:17:31.859Z,101805
2017-10-31T07:20:00.050Z,101816
2017-10-31T07:22:28.172Z,101815
2017-10-31T07:24:56.315Z,101816
2017-10-31T07:27:24.454Z,101806
2017-10-31T07:29:52.560Z,101813
2017-10-31T07:32:20.682Z,101811
2017-10-31T07:34:48.811Z,101818
2017-10-31T07:37:16.976Z,101809
2017-10-31T07:39:45.116Z,101812
2017-10-31T07:42:13.268Z,101814
2017-10-31T07:44:41.381Z,101810
2017-10-31T07:47:09.547Z,101820
2017-10-31T07:49:37.660Z,101777
2017-10-31T07:52:05.879Z,101812
2017-10-31T07:54:34.392Z,101808
2017-10-31T07:57:03.273Z,101816
2017-10-31T07:59:32.552Z,101811
2017-10-31T08:02:00.668Z,101802
2017-10-31T08:04:28.795Z,101799
2017-10-31T08:06:56.936Z,101807
2017-10-31T08:09:25.087Z,101804
2017-10-31T08:11:53.959Z,101808
2017-10-31T08:14:22.823Z,101803
2017-10-31T08:16:51.007Z,101800
2017-10-31T08:19:20.260Z,101799
2017-10-31T08:21:48.400Z,101793
2017-10-31T08:24:16.583Z,101810
2017-10-31T08:26:45.465Z,101791
2017-10-31T08:29:14.409Z,101794
2017-10-31T08:31:42.566Z,101795
2017-10-31T08:34:10.815Z,101792
2017-10-31T08:36:39.004Z,101784
2017-10-31T08:39:07.120Z,101791
2017-10-31T08:41:35.778Z,101792
2017-10-31T08:44:04.003Z,101790
2017-10-31T08:46:32.155Z,101794
2017-10-31T08:49:00.327Z,101793
2017-10-31T08:51:28.503Z,101786
2017-10-31T08:53:56.676Z,101790
2017-10-31T08:56:24.963Z,101786
2017-10-31T08:58:53.094Z,101797
2017-10-31T09:01:36.835Z,101804
2017-10-31T09:04:05.243Z,101796
2017-10-31T09:06:33.432Z,101804
2017-10-31T09:09:01.592Z,101798
2017-10-31T09:11:29.728Z,101804
2017-10-31T09:13:57.876Z,101796
2017-10-31T09:16:26.007Z,101792
2017-10-31T09:18:54.163Z,101802
2017-10-31T09:21:22.352Z,101801
2017-10-31T09:23:50.485Z,101805
2017-10-31T09:26:18.599Z,101811
2017-10-31T09:28:46.755Z,101813
2017-10-31T09:31:14.880Z,101803
2017-10-31T09:33:48.880Z,101813
2017-10-31T09:36:17.288Z,101807
2017-10-31T09:38:46.169Z,101814
2017-10-31T09:41:15.052Z,101805
2017-10-31T09:43:43.210Z,101798
2017-10-31T09:46:11.365Z,101798
2017-10-31T09:48:39.908Z,101799
2017-10-31T09:51:08.792Z,101807
2017-10-31T09:53:37.668Z,101796
2017-10-31T09:56:05.823Z,101804
2017-10-31T09:58:34.031Z,101801
2017-10-31T10:01:03.830Z,101797
2017-10-31T10:03:37.189Z,101800
2017-10-31T10:06:06.952Z,101812
2017-10-31T10:08:37.172Z,101802
2017-10-31T10:11:08.180Z,101799
2017-10-31T10:13:36.781Z,101805
2017-10-31T10:16:05.676Z,101796
2017-10-31T10:18:35.457Z,101803
2017-10-31T10:21:08.172Z,101805
2017-10-31T10:23:37.368Z,101800
2017-10-31T10:26:07.252Z,101795
2017-10-31T10:28:36.003Z,101805
2017-10-31T10:31:05.639Z,101791
2017-10-31T10:33:34.225Z,101803
2017-10-31T10:36:03.537Z,101796
2017-10-31T10:38:32.769Z,101800
2017-10-31T10:41:01.120Z,101789
2017-10-31T10:43:30.622Z,101789
2017-10-31T10:46:00.101Z,101784
2017-10-31T10:48:30.208Z,101792
2017-10-31T10:50:59.315Z,101777
2017-10-31T10:53:28.218Z,101779
2017-10-31T10:55:57.308Z,101776
2017-10-31T10:58:27.016Z,101783
2017-10-31T11:00:56.819Z,101775
2017-10-31T11:03:26.135Z,101770
2017-10-31T11:05:56.357Z,101765
2017-10-31T11:08:26.830Z,101764
2017-10-31T11:10:56.174Z,101761
2017-10-31T11:13:25.013Z,101763
2017-10-31T11:16:00.480Z,101766
2017-10-31T11:18:29.532Z,101757
2017-10-31T11:20:58.268Z,101758
2017-10-31T11:23:26.869Z,101756
2017-10-31T11:25:55.783Z,101770
2017-10-31T11:28:25.348Z,101761
2017-10-31T11:30:53.636Z,101755
2017-10-31T11:33:48.328Z,101748
2017-10-31T11:36:17.084Z,101737
2017-10-31T11:38:47.568Z,101738
2017-10-31T11:41:16.036Z,101744
2017-10-31T11:43:44.786Z,101743
2017-10-31T11:46:14.009Z,101732
2017-10-31T11:48:42.874Z,101741
2017-10-31T11:51:11.760Z,101733
2017-10-31T11:53:41.220Z,101730
2017-10-31T11:56:10.851Z,101733
2017-10-31T11:58:43.844Z,101727
2017-10-31T12:01:13.920Z,101725
2017-10-31T12:03:42.279Z,101737
2017-10-31T12:06:11.944Z,101738
2017-10-31T12:08:41.776Z,101734
2017-10-31T12:11:11.597Z,101730
2017-10-31T12:13:40.787Z,101736
2017-10-31T12:16:09.950Z,101735
2017-10-31T12:18:38.573Z,101723
2017-10-31T12:21:07.305Z,101742
2017-10-31T12:23:35.633Z,101739
2017-10-31T12:26:04.648Z,101738
2017-10-31T12:28:33.301Z,101736
2017-10-31T12:31:06.578Z,101727
2017-10-31T12:33:35.633Z,101730
2017-10-31T12:36:05.078Z,101730
2017-10-31T12:38:33.919Z,101730
2017-10-31T12:41:02.738Z,101732
2017-10-31T12:43:31.865Z,101729
2017-10-31T12:46:00.198Z,101734
2017-10-31T12:48:30.204Z,101732
2017-10-31T12:50:58.513Z,101718
2017-10-31T12:53:27.656Z,101717
2017-10-31T12:56:00.273Z,101704
2017-10-31T12:58:30.581Z,101706
2017-10-31T13:01:00.367Z,101706
2017-10-31T13:03:30.621Z,101704
2017-10-31T13:06:01.104Z,101697
2017-10-31T13:08:29.724Z,101700
2017-10-31T13:10:59.266Z,101698
2017-10-31T13:13:29.463Z,101710
2017-10-31T13:15:58.864Z,101691
2017-10-31T13:18:28.252Z,101699
2017-10-31T13:20:57.465Z,101702
2017-10-31T13:23:27.584Z,101698
2017-10-31T13:25:57.764Z,101697
2017-10-31T13:28:31.678Z,101693
2017-10-31T13:31:04.635Z,101694
2017-10-31T13:33:39.264Z,101685
2017-10-31T13:36:11.280Z,101689
2017-10-31T13:38:44.069Z,101678
2017-10-31T13:41:16.764Z,101682
2017-10-31T13:43:49.831Z,101674
2017-10-31T13:46:20.572Z,101686
2017-10-31T13:48:51.588Z,101671
2017-10-31T13:51:23.743Z,101665
2017-10-31T13:53:55.450Z,101671
2017-10-31T13:56:26.272Z,101667
2017-10-31T13:58:56.405Z,101664
2017-10-31T14:01:27.131Z,101656
2017-10-31T14:04:00.584Z,101665
2017-10-31T14:06:31.448Z,101650
2017-10-31T14:09:03.574Z,101662
2017-10-31T14:11:35.996Z,101655
2017-10-31T14:14:06.000Z,101659
2017-10-31T14:16:38.231Z,101662
2017-10-31T14:19:07.553Z,101660
2017-10-31T14:21:38.123Z,101654
2017-10-31T14:24:08.844Z,101648
2017-10-31T14:26:37.470Z,101654
2017-10-31T14:29:07.364Z,101646
2017-10-31T14:31:38.724Z,101642
2017-10-31T14:34:07.497Z,101644
2017-10-31T14:36:37.159Z,101635
2017-10-31T14:39:08.151Z,101636
2017-10-31T14:41:37.228Z,101631
2017-10-31T14:44:06.931Z,101629
2017-10-31T14:46:37.864Z,101631
2017-10-31T14:49:06.772Z,101628
2017-10-31T14:51:39.363Z,101628
2017-10-31T14:54:11.803Z,101625
2017-10-31T14:56:41.276Z,101628
2017-10-31T14:59:09.869Z,101612
2017-10-31T15:01:38.165Z,101612
2017-10-31T15:04:06.762Z,101608
2017-10-31T15:06:36.103Z,101596
2017-10-31T15:09:07.040Z,101591
2017-10-31T15:11:36.388Z,101596
2017-10-31T15:14:05.128Z,101596
2017-10-31T15:16:37.594Z,101588
2017-10-31T15:19:08.677Z,101585
2017-10-31T15:21:37.736Z,101593
2017-10-31T15:24:08.133Z,101590
2017-10-31T15:26:38.705Z,101581
2017-10-31T15:29:07.776Z,101577
2017-10-31T15:31:37.047Z,101588
2017-10-31T15:34:05.360Z,101568
2017-10-31T15:36:33.704Z,101572
2017-10-31T15:39:02.824Z,101572
2017-10-31T15:41:32.061Z,101575
2017-10-31T15:44:07.072Z,101562
2017-10-31T15:46:38.021Z,101558
2017-10-31T15:49:07.453Z,101562
2017-10-31T15:51:36.171Z,101558
2017-10-31T15:54:09.572Z,101558
2017-10-31T15:56:38.485Z,101548
2017-10-31T15:59:08.249Z,101542
2017-10-31T16:01:36.996Z,101541
2017-10-31T16:04:06.424Z,101547
2017-10-31T16:06:34.780Z,101547
2017-10-31T16:09:05.183Z,101536
2017-10-31T16:11:34.504Z,101538
2017-10-31T16:14:04.212Z,101543
2017-10-31T16:16:33.717Z,101530
2017-10-31T16:19:03.372Z,101532
2017-10-31T16:21:31.924Z,101538
2017-10-31T16:24:01.125Z,101539
2017-10-31T16:26:34.260Z,101532
2017-10-31T16:29:04.219Z,101546
2017-10-31T16:31:33.184Z,101533
2017-10-31T16:36:38.524Z,101550
2017-10-31T16:39:09.643Z,101538
2017-10-31T16:41:39.137Z,101541
2017-10-31T16:44:08.556Z,101535
2017-10-31T16:46:37.177Z,101540
2017-10-31T16:49:06.102Z,101540
2017-10-31T16:51:36.748Z,101531
2017-10-31T16:54:05.756Z,101541
2017-10-31T16:56:34.515Z,101540
2017-10-31T16:59:03.100Z,101541
2017-10-31T17:01:32.920Z,101540
2017-10-31T17:04:04.472Z,101545
2017-10-31T17:06:33.823Z,101538
2017-10-31T17:09:03.176Z,101548
2017-10-31T17:11:32.559Z,101545
2017-10-31T17:14:02.241Z,101536
2017-10-31T17:16:30.811Z,101533
2017-10-31T17:18:59.291Z,101539
2017-10-31T17:21:28.841Z,101524
2017-10-31T17:23:58.404Z,101531
2017-10-31T17:26:28.123Z,101527
2017-10-31T17:28:57.005Z,101521
2017-10-31T17:31:26.087Z,101522
2017-10-31T17:33:55.641Z,101529
2017-10-31T17:36:24.400Z,101522
2017-10-31T17:38:54.141Z,101517
2017-10-31T17:41:23.556Z,101526
2017-10-31T17:43:53.589Z,101517
2017-10-31T17:46:25.450Z,101522
2017-10-31T17:48:53.788Z,101529
2017-10-31T17:51:22.093Z,101522
2017-10-31T17:53:51.556Z,101526
2017-10-31T17:56:21.212Z,101511
2017-10-31T17:58:49.524Z,101511
2017-10-31T18:01:17.836Z,101515
2017-10-31T18:03:46.451Z,101519
2017-10-31T18:06:18.004Z,101512
2017-10-31T18:08:47.936Z,101510
2017-10-31T18:11:17.679Z,101507
2017-10-31T18:13:47.335Z,101511
2017-10-31T18:16:15.969Z,101496
2017-10-31T18:18:44.595Z,101503
2017-10-31T18:21:15.430Z,101505
2017-10-31T18:23:44.333Z,101507
2017-10-31T18:26:12.653Z,101493
2017-10-31T18:28:41.217Z,101492
2017-10-31T18:31:11.012Z,101503
2017-10-31T18:33:39.640Z,101502
2017-10-31T18:36:08.987Z,101497
2017-10-31T18:38:38.416Z,101503
2017-10-31T18:41:10.296Z,101494
2017-10-31T18:43:39.968Z,101489
2017-10-31T18:46:09.354Z,101501
2017-10-31T18:48:38.508Z,101493
2017-10-31T18:51:06.858Z,101494
2017-10-31T18:53:36.268Z,101488
2017-10-31T18:56:05.941Z,101487
2017-10-31T18:58:35.105Z,101479
2017-10-31T19:01:04.891Z,101474
2017-10-31T19:03:33.889Z,101473
2017-10-31T19:06:04.528Z,101475
2017-10-31T19:08:32.888Z,101477
2017-10-31T19:11:04.756Z,101460
2017-10-31T19:13:35.097Z,101472
2017-10-31T19:16:03.505Z,101469
2017-10-31T19:18:33.760Z,101463
2017-10-31T19:21:04.222Z,101462
2017-10-31T19:23:33.705Z,101455
2017-10-31T19:26:02.769Z,101452
2017-10-31T19:28:31.772Z,101461
2017-10-31T19:31:00.400Z,101451
2017-10-31T19:33:30.072Z,101448
2017-10-31T19:35:58.890Z,101442
2017-10-31T19:38:28.531Z,101439
2017-10-31T19:40:57.761Z,101445
2017-10-31T19:43:26.617Z,101440
2017-10-31T19:45:57.304Z,101440
2017-10-31T19:48:26.920Z,101440
2017-10-31T19:50:56.166Z,101434
2017-10-31T19:53:25.883Z,101438
2017-10-31T19:55:54.354Z,101430
2017-10-31T19:58:22.834Z,101438
2017-10-31T20:00:52.120Z,101429
2017-10-31T20:03:21.906Z,101424
2017-10-31T20:05:52.464Z,101442
2017-10-31T20:08:25.428Z,101429
2017-10-31T20:10:54.256Z,101431
2017-10-31T20:13:22.872Z,101425
2017-10-31T20:15:51.422Z,101429
2017-10-31T20:18:20.072Z,101428
2017-10-31T20:20:49.565Z,101419
2017-10-31T20:23:19.673Z,101427
2017-10-31T20:25:47.983Z,101419
2017-10-31T20:28:17.725Z,101419
2017-10-31T20:30:47.792Z,101428
2017-10-31T20:33:20.605Z,101418
2017-10-31T20:35:49.313Z,101415
2017-10-31T20:38:18.593Z,101425
2017-10-31T20:40:46.911Z,101422
2017-10-31T20:43:17.782Z,101406
2017-10-31T20:45:48.028Z,101405
2017-10-31T20:48:17.002Z,101413
2017-10-31T20:50:49.948Z,101402
2017-10-31T20:53:18.880Z,101409
2017-10-31T20:55:48.976Z,101400
2017-10-31T20:58:18.416Z,101397
2017-10-31T21:00:47.777Z,101395
2017-10-31T21:03:16.104Z,101390
2017-10-31T21:05:44.757Z,101391
2017-10-31T21:08:15.012Z,101391
2017-10-31T21:10:44.128Z,101392
2017-10-31T21:13:15.529Z,101389
2017-10-31T21:15:45.217Z,101389
2017-10-31T21:18:15.236Z,101385
2017-10-31T21:20:47.497Z,101373
2017-10-31T21:23:16.828Z,101382
2017-10-31T21:25:46.487Z,101382
2017-10-31T21:28:15.877Z,101378
2017-10-31T21:30:45.859Z,101378
2017-10-31T21:33:14.804Z,101361
2017-10-31T21:35:43.488Z,101368
2017-10-31T21:38:13.812Z,101370
2017-10-31T21:40:42.928Z,101368
2017-10-31T21:43:11.801Z,101368
2017-10-31T21:45:41.085Z,101355
2017-10-31T21:48:12.080Z,101351
2017-10-31T21:50:42.138Z,101351
2017-10-31T21:53:11.495Z,101346
2017-10-31T21:55:45.470Z,101344
2017-10-31T21:58:16.171Z,101340
2017-10-31T22:00:47.554Z,101349
2017-10-31T22:03:17.383Z,101331
2017-10-31T22:05:47.364Z,101338
2017-10-31T22:08:16.402Z,101334
2017-10-31T22:10:45.953Z,101359
2017-10-31T22:13:15.509Z,101342
2017-10-31T22:15:45.333Z,101339
2017-10-31T22:18:13.683Z,101337
2017-10-31T22:20:47.014Z,101339
2017-10-31T22:23:16.454Z,101335
2017-10-31T22:25:45.885Z,101345
2017-10-31T22:28:14.712Z,101333
2017-10-31T22:30:43.420Z,101325
2017-10-31T22:33:11.992Z,101330
2017-10-31T22:35:41.613Z,101325
2017-10-31T22:38:11.320Z,101318
2017-10-31T22:40:40.724Z,101322
2017-10-31T22:43:11.180Z,101318
2017-10-31T22:45:40.276Z,101312
2017-10-31T22:48:11.555Z,101309
2017-10-31T22:50:41.148Z,101316
2017-10-31T22:53:10.736Z,101315
2017-10-31T22:55:40.416Z,101314
2017-10-31T22:58:11.404Z,101307
2017-10-31T23:00:41.554Z,101301
2017-10-31T23:03:10.289Z,101307
2017-10-31T23:05:43.185Z,101308
2017-10-31T23:08:12.536Z,101304
2017-10-31T23:10:41.597Z,101299
2017-10-31T23:13:10.512Z,101309
2017-10-31T23:15:39.227Z,101310
2017-10-31T23:18:07.912Z,101307
2017-10-31T23:20:37.492Z,101294
2017-10-31T23:23:08.168Z,101291
2017-10-31T23:25:37.540Z,101291
2017-10-31T23:28:06.185Z,101297
2017-10-31T23:30:34.493Z,101290
2017-10-31T23:33:04.139Z,101289
2017-10-31T23:35:33.015Z,101289
2017-10-31T23:38:01.631Z,101287
2017-10-31T23:40:30.895Z,101283
2017-10-31T23:43:00.221Z,101286
2017-10-31T23:45:28.887Z,101285
2017-10-31T23:47:58.197Z,101280
2017-10-31T23:50:27.792Z,101276
2017-10-31T23:52:56.896Z,101278
2017-10-31T23:55:27.732Z,101277
2017-10-31T23:57:57.181Z,101270
